Time;durP1;ratioP1;P1;durP2;ratioP2;P2;SDS_P1;SDS_P2;PMS_P1;PMS_P2;Temp;Humidity;BMP_temperature;BMP_pressure;BME280_temperature;BME280_humidity;BME280_pressure;Samples;Min_cycle;Max_cycle;Signal;HPM_P1;HPM_P2
2021/12/09 00:02:25;;;;;;;29.13;21.50;;;1.00;99.90;;;;;;4989907;28;20196;-73
2021/12/09 00:04:54;;;;;;;33.60;23.07;;;1.00;99.90;;;;;;4992655;28;20213;-73
2021/12/09 00:07:19;;;;;;;29.27;21.27;;;1.00;99.90;;;;;;4986924;28;20201;-73
2021/12/09 00:09:45;;;;;;;30.33;20.93;;;1.10;99.90;;;;;;4994098;28;20186;-73
2021/12/09 00:12:11;;;;;;;27.63;21.43;;;1.20;99.90;;;;;;4990661;28;20186;-73
2021/12/09 00:14:36;;;;;;;34.50;21.87;;;1.30;99.90;;;;;;4977097;28;20555;-73
2021/12/09 00:17:07;;;;;;;30.70;21.63;;;1.40;99.90;;;;;;4989161;28;20201;-73
2021/12/09 00:19:34;;;;;;;33.80;22.03;;;1.50;99.90;;;;;;4988273;28;20221;-73
2021/12/09 00:22:02;;;;;;;28.77;21.63;;;1.50;99.90;;;;;;4994996;28;20261;-73
2021/12/09 00:24:28;;;;;;;28.40;21.97;;;1.40;99.90;;;;;;4992044;28;20177;-73
2021/12/09 00:26:54;;;;;;;27.90;20.37;;;1.40;99.90;;;;;;4975975;28;20204;-73
2021/12/09 00:29:20;;;;;;;29.47;20.93;;;1.40;99.90;;;;;;4990892;28;20190;-73
2021/12/09 00:31:48;;;;;;;27.17;20.93;;;1.40;99.90;;;;;;4996254;28;20761;-73
2021/12/09 00:34:14;;;;;;;30.97;20.57;;;1.50;99.90;;;;;;4993564;28;20182;-73
2021/12/09 00:36:45;;;;;;;32.87;22.20;;;1.40;99.90;;;;;;4997534;28;20185;-73
2021/12/09 00:39:12;;;;;;;27.73;19.93;;;1.60;99.90;;;;;;4993400;28;21107;-73
2021/12/09 00:41:38;;;;;;;31.73;21.83;;;1.50;99.90;;;;;;4977511;28;20189;-73
2021/12/09 00:44:05;;;;;;;29.20;21.70;;;1.60;99.90;;;;;;4992566;28;20260;-73
2021/12/09 00:46:31;;;;;;;32.23;22.23;;;1.50;99.90;;;;;;5001996;28;20268;-73
2021/12/09 00:48:56;;;;;;;29.63;21.37;;;1.40;99.90;;;;;;4988584;28;20233;-73
2021/12/09 00:51:22;;;;;;;31.97;21.77;;;1.30;99.90;;;;;;4989861;28;20300;-73
2021/12/09 00:53:48;;;;;;;30.90;22.43;;;1.30;99.90;;;;;;4992445;28;20538;-73
2021/12/09 00:56:14;;;;;;;32.23;20.93;;;1.30;99.90;;;;;;5001679;28;20207;-74
2021/12/09 00:58:42;;;;;;;32.67;21.90;;;1.40;99.90;;;;;;4988228;28;20213;-73
2021/12/09 01:01:09;;;;;;;28.90;20.73;;;1.50;99.90;;;;;;4976204;28;20601;-73
2021/12/09 01:03:37;;;;;;;27.87;20.03;;;1.40;99.90;;;;;;4991499;28;20190;-73
2021/12/09 01:06:04;;;;;;;28.03;21.10;;;1.50;99.90;;;;;;4992519;28;20190;-73
2021/12/09 01:08:29;;;;;;;29.83;21.30;;;1.40;99.90;;;;;;4992137;28;20273;-73
2021/12/09 01:10:56;;;;;;;28.17;20.63;;;1.30;99.90;;;;;;4990653;28;20370;-73
2021/12/09 01:13:21;;;;;;;27.07;19.93;;;1.30;99.90;;;;;;4979826;28;20189;-73
2021/12/09 01:15:47;;;;;;;28.13;20.17;;;1.20;99.90;;;;;;5000581;28;20586;-73
2021/12/09 01:18:13;;;;;;;27.07;19.63;;;1.30;99.90;;;;;;4995827;28;20691;-73
2021/12/09 01:20:39;;;;;;;26.70;20.37;;;1.30;99.90;;;;;;4993471;28;20202;-73
2021/12/09 01:23:06;;;;;;;24.97;19.37;;;1.40;99.90;;;;;;4999092;28;20182;-73
2021/12/09 01:25:36;;;;;;;29.23;19.60;;;1.50;99.90;;;;;;5004585;28;20181;-73
2021/12/09 01:28:03;;;;;;;27.17;19.67;;;1.50;99.90;;;;;;4996272;28;20326;-73
2021/12/09 01:30:29;;;;;;;28.13;19.60;;;1.60;99.90;;;;;;4993293;28;20214;-73
2021/12/09 01:32:55;;;;;;;27.90;19.83;;;1.60;99.90;;;;;;4997251;28;20193;-73
2021/12/09 01:35:30;;;;;;;30.67;21.23;;;1.50;99.90;;;;;;5002409;28;20177;-73
2021/12/09 01:38:00;;;;;;;31.17;20.67;;;1.50;99.90;;;;;;4995999;28;20213;-73
2021/12/09 01:40:28;;;;;;;27.33;18.73;;;1.40;99.90;;;;;;4999719;28;20177;-73
2021/12/09 01:42:57;;;;;;;28.13;19.17;;;1.30;99.90;;;;;;4998625;28;20189;-73
2021/12/09 01:45:23;;;;;;;26.10;20.10;;;1.50;99.90;;;;;;4994385;28;20189;-73
2021/12/09 01:47:49;;;;;;;27.47;21.07;;;1.50;99.90;;;;;;4999848;28;20609;-73
2021/12/09 01:50:15;;;;;;;24.80;18.57;;;1.60;99.90;;;;;;4980430;28;20205;-73
2021/12/09 01:52:41;;;;;;;29.70;21.50;;;1.50;99.90;;;;;;4992549;28;20178;-73
2021/12/09 01:55:09;;;;;;;28.17;20.43;;;1.50;99.90;;;;;;4999591;28;20190;-73
2021/12/09 01:57:35;;;;;;;31.23;21.27;;;1.50;99.90;;;;;;5004422;28;20198;-73
2021/12/09 02:00:02;;;;;;;31.03;21.23;;;1.40;99.90;;;;;;4996494;28;20249;-73
2021/12/09 02:02:28;;;;;;;33.70;22.03;;;1.20;99.90;;;;;;4996776;28;20193;-73
2021/12/09 02:04:53;;;;;;;28.93;20.80;;;1.20;99.90;;;;;;4995789;28;20600;-73
2021/12/09 02:07:19;;;;;;;31.57;20.77;;;1.20;99.90;;;;;;4984832;28;20688;-73
2021/12/09 02:09:45;;;;;;;31.80;21.60;;;1.30;99.90;;;;;;4994390;28;20186;-73
2021/12/09 02:12:11;;;;;;;26.30;19.27;;;1.40;99.90;;;;;;4999159;28;20186;-73
2021/12/09 02:14:41;;;;;;;27.13;20.97;;;1.50;99.90;;;;;;5003290;28;20177;-73
2021/12/09 02:17:08;;;;;;;29.90;20.00;;;1.50;99.90;;;;;;4987566;28;20206;-73
2021/12/09 02:19:34;;;;;;;29.43;20.67;;;1.50;99.90;;;;;;4982046;28;20205;-73
2021/12/09 02:22:00;;;;;;;32.20;21.53;;;1.50;99.90;;;;;;4997580;28;20190;-73
2021/12/09 02:24:26;;;;;;;28.27;21.50;;;1.50;99.90;;;;;;4980160;28;20556;-73
2021/12/09 02:26:52;;;;;;;30.43;21.37;;;1.50;99.90;;;;;;4981614;28;20274;-73
2021/12/09 02:29:18;;;;;;;30.37;20.73;;;1.40;99.90;;;;;;5001543;28;20181;-73
2021/12/09 02:31:45;;;;;;;27.37;21.27;;;1.40;99.90;;;;;;4997612;28;20212;-73
2021/12/09 02:34:11;;;;;;;27.30;20.27;;;1.40;99.90;;;;;;4996772;28;20209;-73
2021/12/09 02:36:42;;;;;;;30.60;22.87;;;1.40;99.90;;;;;;5000399;28;20192;-73
2021/12/09 02:39:11;;;;;;;31.87;23.20;;;1.30;99.90;;;;;;4999688;28;20185;-73
2021/12/09 02:41:38;;;;;;;33.30;21.27;;;1.20;99.90;;;;;;5000355;28;20654;-73
2021/12/09 02:44:07;;;;;;;33.17;24.13;;;1.10;99.90;;;;;;4994563;28;20194;-73
2021/12/09 02:46:36;;;;;;;31.70;21.17;;;1.00;99.90;;;;;;4997123;28;20301;-73
2021/12/09 02:49:04;;;;;;;32.87;22.53;;;1.00;99.90;;;;;;4996318;28;20193;-73
2021/12/09 02:51:30;;;;;;;31.33;22.23;;;1.00;99.90;;;;;;4991348;28;20217;-73
2021/12/09 02:53:56;;;;;;;31.57;21.50;;;1.00;99.90;;;;;;4996362;28;20556;-72
2021/12/09 02:56:21;;;;;;;35.83;23.27;;;0.90;99.90;;;;;;4976885;28;20193;-73
2021/12/09 02:58:47;;;;;;;33.47;23.37;;;0.90;99.90;;;;;;4992152;28;20205;-73
2021/12/09 03:01:20;;;;;;;32.93;23.20;;;0.80;99.90;;;;;;4996291;28;20193;-73
2021/12/09 03:03:51;;;;;;;32.73;23.23;;;0.70;99.90;;;;;;4995839;28;20182;-73
2021/12/09 03:06:22;;;;;;;37.50;24.27;;;0.70;99.90;;;;;;4994580;28;20688;-73
2021/12/09 03:08:49;;;;;;;35.07;23.23;;;0.70;99.90;;;;;;4992123;28;20209;-73
2021/12/09 03:11:19;;;;;;;39.23;25.73;;;0.70;99.90;;;;;;4996452;28;20202;-73
2021/12/09 03:13:45;;;;;;;38.33;26.90;;;0.60;99.90;;;;;;4995744;28;20186;-73
2021/12/09 03:16:11;;;;;;;42.87;26.10;;;0.50;99.90;;;;;;4993127;28;20258;-73
2021/12/09 03:18:43;;;;;;;37.53;24.90;;;0.50;99.90;;;;;;4987956;28;20288;-73
2021/12/09 03:21:24;;;;;;;39.13;25.13;;;0.40;99.90;;;;;;4996287;28;20564;-73
2021/12/09 03:23:50;;;;;;;39.63;25.07;;;0.40;99.90;;;;;;4994734;28;20668;-73
2021/12/09 03:26:18;;;;;;;40.03;24.33;;;0.40;99.90;;;;;;4993210;28;20186;-73
2021/12/09 03:28:44;;;;;;;38.60;24.43;;;0.40;99.90;;;;;;4996126;28;20292;-73
2021/12/09 03:31:10;;;;;;;37.70;24.00;;;0.40;99.90;;;;;;4998546;28;20344;-73
2021/12/09 03:33:36;;;;;;;33.53;23.37;;;0.50;99.90;;;;;;4995918;28;20646;-72
2021/12/09 03:36:05;;;;;;;34.57;23.70;;;0.50;99.90;;;;;;4993379;28;20627;-73
2021/12/09 03:38:32;;;;;;;34.27;23.90;;;0.50;99.90;;;;;;4972561;28;20201;-73
2021/12/09 03:40:58;;;;;;;35.33;23.40;;;0.50;99.90;;;;;;4997511;28;20187;-73
2021/12/09 03:43:24;;;;;;;44.10;24.07;;;0.50;99.90;;;;;;4994489;28;20182;-73
2021/12/09 03:45:53;;;;;;;37.53;25.37;;;0.50;99.90;;;;;;4991797;28;20181;-73
2021/12/09 03:48:19;;;;;;;38.03;24.80;;;0.40;99.90;;;;;;4988363;28;20202;-73
2021/12/09 03:50:45;;;;;;;35.57;24.77;;;0.40;99.90;;;;;;4988179;28;20198;-73
2021/12/09 03:53:13;;;;;;;37.97;25.00;;;0.40;99.90;;;;;;4994897;28;20277;-73
2021/12/09 03:55:39;;;;;;;39.87;24.93;;;0.50;99.90;;;;;;4979221;28;20548;-73
2021/12/09 03:58:05;;;;;;;35.77;24.17;;;0.50;99.90;;;;;;4989727;28;20744;-73
2021/12/09 04:00:31;;;;;;;35.63;23.03;;;0.50;99.90;;;;;;4998354;28;20186;-73
2021/12/09 04:02:57;;;;;;;35.57;24.03;;;0.60;99.90;;;;;;4988822;28;20182;-73
2021/12/09 04:05:23;;;;;;;37.03;24.67;;;0.60;99.90;;;;;;4993554;28;20200;-73
2021/12/09 04:07:49;;;;;;;36.10;23.53;;;0.50;99.90;;;;;;4987900;28;20212;-73
2021/12/09 04:10:15;;;;;;;35.73;24.43;;;0.50;99.90;;;;;;4995013;28;20205;-73
2021/12/09 04:12:40;;;;;;;37.77;24.93;;;0.50;99.90;;;;;;4994188;28;20193;-73
2021/12/09 04:15:07;;;;;;;40.37;25.93;;;0.40;99.90;;;;;;4988890;28;20174;-73
2021/12/09 04:17:34;;;;;;;41.93;24.70;;;0.40;99.90;;;;;;5002649;28;20298;-72
2021/12/09 04:19:59;;;;;;;45.07;26.23;;;0.40;99.90;;;;;;4993863;28;20252;-73
2021/12/09 04:22:26;;;;;;;41.60;27.73;;;0.40;99.90;;;;;;4997823;28;20197;-73
2021/12/09 04:24:52;;;;;;;43.57;26.03;;;0.40;99.90;;;;;;4988903;28;20241;-73
2021/12/09 04:27:19;;;;;;;33.37;22.53;;;0.40;99.90;;;;;;4996982;28;20239;-73
2021/12/09 04:29:46;;;;;;;39.53;25.97;;;0.40;99.90;;;;;;4993054;28;20235;-73
2021/12/09 04:32:12;;;;;;;42.53;26.20;;;0.50;99.90;;;;;;4998866;28;20266;-73
2021/12/09 04:34:37;;;;;;;41.43;26.27;;;0.50;99.90;;;;;;4988125;28;20177;-72
2021/12/09 04:37:04;;;;;;;39.53;24.83;;;0.60;99.90;;;;;;4997223;28;20201;-72
2021/12/09 04:39:29;;;;;;;37.00;24.93;;;0.50;99.90;;;;;;4978343;28;20256;-72
2021/12/09 04:41:55;;;;;;;40.30;26.70;;;0.40;99.90;;;;;;4994326;28;20265;-72
2021/12/09 04:44:22;;;;;;;39.50;26.03;;;0.40;99.90;;;;;;4986044;28;20189;-72
2021/12/09 04:46:48;;;;;;;42.60;26.53;;;0.40;99.90;;;;;;4994343;28;20557;-72
2021/12/09 04:49:14;;;;;;;40.40;25.77;;;0.40;99.90;;;;;;4987765;28;20206;-72
2021/12/09 04:51:39;;;;;;;36.80;24.53;;;0.40;99.90;;;;;;4988952;28;20210;-72
2021/12/09 04:54:06;;;;;;;40.87;24.97;;;0.40;99.90;;;;;;4991079;28;20553;-72
2021/12/09 04:56:33;;;;;;;41.73;25.90;;;0.40;99.90;;;;;;4995488;28;20688;-72
2021/12/09 04:58:59;;;;;;;38.40;25.10;;;0.40;99.90;;;;;;4995375;28;20198;-72
2021/12/09 05:01:25;;;;;;;40.33;24.30;;;0.40;99.90;;;;;;4990732;28;20193;-72
2021/12/09 05:03:51;;;;;;;40.57;25.37;;;0.50;99.90;;;;;;4996059;28;20516;-72
2021/12/09 05:06:18;;;;;;;39.07;25.10;;;0.60;99.90;;;;;;4994269;28;20174;-72
2021/12/09 05:08:47;;;;;;;40.00;25.90;;;0.60;99.90;;;;;;4990677;28;20209;-72
2021/12/09 05:11:28;;;;;;;40.93;25.33;;;0.60;99.90;;;;;;4975649;28;20545;-72
2021/12/09 05:13:54;;;;;;;40.63;24.70;;;0.50;99.90;;;;;;4994326;28;20174;-72
2021/12/09 05:16:20;;;;;;;40.53;25.63;;;0.50;99.90;;;;;;4993983;28;20182;-72
2021/12/09 05:18:46;;;;;;;41.17;26.13;;;0.50;99.90;;;;;;4996140;28;20293;-73
2021/12/09 05:21:12;;;;;;;40.40;25.83;;;0.40;99.90;;;;;;4996199;28;20684;-73
2021/12/09 05:23:40;;;;;;;41.30;25.10;;;0.40;99.90;;;;;;4994567;28;20264;-72
2021/12/09 05:26:06;;;;;;;38.73;25.43;;;0.40;99.90;;;;;;4978365;28;20512;-72
2021/12/09 05:28:35;;;;;;;39.03;25.90;;;0.50;99.90;;;;;;4998767;28;20252;-72
2021/12/09 05:33:48;;;;;;;37.07;26.50;;;0.50;99.90;;;;;;4990804;28;20193;-72
2021/12/09 05:36:16;;;;;;;45.30;26.67;;;0.40;99.90;;;;;;4991990;28;20180;-72
2021/12/09 05:38:42;;;;;;;37.93;23.03;;;0.40;99.90;;;;;;4998403;28;20257;-72
2021/12/09 05:41:08;;;;;;;40.10;25.13;;;0.50;99.90;;;;;;4992223;28;20264;-72
2021/12/09 05:43:35;;;;;;;40.10;25.93;;;0.50;99.90;;;;;;4994564;28;20182;-72
2021/12/09 05:46:01;;;;;;;43.10;26.90;;;0.50;99.90;;;;;;4996381;28;20272;-72
2021/12/09 05:48:27;;;;;;;39.60;24.70;;;0.50;99.90;;;;;;4993906;28;20338;-72
2021/12/09 05:50:52;;;;;;;39.90;26.47;;;0.50;99.90;;;;;;4992449;28;20206;-72
2021/12/09 05:53:18;;;;;;;38.13;24.03;;;0.50;99.90;;;;;;4995593;28;20185;-72
2021/12/09 05:55:44;;;;;;;37.43;24.50;;;0.40;99.90;;;;;;4992982;28;20269;-72
2021/12/09 05:58:14;;;;;;;45.07;25.93;;;0.60;99.90;;;;;;4993695;28;20190;-72
2021/12/09 06:00:40;;;;;;;39.30;25.03;;;0.50;99.90;;;;;;4993364;28;20201;-72
2021/12/09 06:03:06;;;;;;;38.13;26.97;;;0.50;99.90;;;;;;4997500;28;20186;-73
2021/12/09 06:05:32;;;;;;;43.30;27.97;;;0.40;99.90;;;;;;4990989;28;20190;-72
2021/12/09 06:07:57;;;;;;;42.83;26.50;;;0.40;99.90;;;;;;4994554;28;20276;-72
2021/12/09 06:10:23;;;;;;;42.43;26.77;;;0.40;99.90;;;;;;4976738;28;20241;-72
2021/12/09 06:12:49;;;;;;;40.90;26.87;;;0.40;99.90;;;;;;4989197;28;20269;-72
2021/12/09 06:15:14;;;;;;;40.47;25.77;;;0.40;99.90;;;;;;4986683;28;20184;-73
2021/12/09 06:17:40;;;;;;;46.83;27.30;;;0.40;99.90;;;;;;4993297;28;20279;-72
2021/12/09 06:20:07;;;;;;;43.17;27.73;;;0.40;99.90;;;;;;4992927;28;20198;-72
2021/12/09 06:22:32;;;;;;;45.37;27.27;;;0.50;99.90;;;;;;4993654;28;20190;-73
2021/12/09 06:24:58;;;;;;;39.63;25.17;;;0.50;99.90;;;;;;4991783;28;20232;-72
2021/12/09 06:27:24;;;;;;;40.77;26.47;;;0.50;99.90;;;;;;4992685;28;20209;-73
2021/12/09 06:29:49;;;;;;;44.97;27.63;;;0.60;99.90;;;;;;4993327;28;20194;-73
2021/12/09 06:32:15;;;;;;;46.03;27.60;;;0.50;99.90;;;;;;4992786;28;20193;-72
2021/12/09 06:34:41;;;;;;;45.83;27.40;;;0.50;99.90;;;;;;4992027;28;20178;-73
2021/12/09 06:37:07;;;;;;;42.47;27.40;;;0.40;99.90;;;;;;4992592;28;20220;-73
2021/12/09 06:39:32;;;;;;;44.33;27.57;;;0.50;99.90;;;;;;4994352;28;20410;-73
2021/12/09 06:41:58;;;;;;;43.43;27.63;;;0.60;99.90;;;;;;4991188;28;20267;-73
2021/12/09 06:44:24;;;;;;;45.07;26.27;;;0.60;99.90;;;;;;4992049;28;20185;-73
2021/12/09 06:46:50;;;;;;;46.60;29.20;;;0.60;99.90;;;;;;4987547;28;20183;-76
2021/12/09 06:49:15;;;;;;;43.93;25.37;;;0.60;99.90;;;;;;4984643;28;20269;-72
2021/12/09 06:51:41;;;;;;;47.80;27.67;;;0.60;99.90;;;;;;4992557;28;20206;-74
2021/12/09 06:54:06;;;;;;;47.73;26.77;;;0.60;99.90;;;;;;4992517;28;20229;-76
2021/12/09 06:56:32;;;;;;;41.10;25.57;;;0.60;99.90;;;;;;4992006;28;20657;-72
2021/12/09 06:58:59;;;;;;;45.37;27.70;;;0.60;99.90;;;;;;4985045;28;20684;-73
2021/12/09 07:01:24;;;;;;;48.20;26.97;;;0.70;99.90;;;;;;4985683;28;20198;-72
2021/12/09 07:03:51;;;;;;;49.27;28.83;;;0.60;99.90;;;;;;4991509;28;20208;-73
2021/12/09 07:06:17;;;;;;;49.47;29.53;;;0.60;99.90;;;;;;4989166;28;20190;-75
2021/12/09 07:08:48;;;;;;;50.20;27.90;;;0.50;99.90;;;;;;4987351;28;20292;-72
2021/12/09 07:11:18;;;;;;;39.80;26.03;;;0.50;99.90;;;;;;4991364;28;20240;-74
2021/12/09 07:13:45;;;;;;;53.73;29.53;;;0.60;99.90;;;;;;4986410;28;20241;-72
2021/12/09 07:16:11;;;;;;;42.40;28.33;;;0.60;99.90;;;;;;4985928;28;20259;-74
2021/12/09 07:18:37;;;;;;;51.07;27.87;;;0.60;99.90;;;;;;4988747;28;20237;-74
2021/12/09 07:21:06;;;;;;;52.00;30.03;;;0.60;99.90;;;;;;4993732;28;20772;-75
2021/12/09 07:23:32;;;;;;;54.17;29.53;;;0.50;99.90;;;;;;4986201;28;20528;-74
2021/12/09 07:25:58;;;;;;;46.10;24.97;;;0.50;99.90;;;;;;4990996;28;20186;-72
2021/12/09 07:28:24;;;;;;;54.50;27.57;;;0.50;99.90;;;;;;4991018;28;20272;-72
2021/12/09 07:30:49;;;;;;;65.50;33.23;;;0.60;99.90;;;;;;4983281;28;20203;-72
2021/12/09 07:33:15;;;;;;;59.33;32.37;;;0.70;99.90;;;;;;4985013;28;20201;-73
2021/12/09 07:35:43;;;;;;;49.63;29.17;;;0.60;99.90;;;;;;4987917;28;20184;-73
2021/12/09 07:38:09;;;;;;;54.77;29.90;;;0.70;99.90;;;;;;4991176;28;20206;-73
2021/12/09 07:40:36;;;;;;;52.87;28.27;;;0.70;99.90;;;;;;4985800;28;20602;-72
2021/12/09 07:43:02;;;;;;;52.57;29.20;;;0.70;99.90;;;;;;4969654;28;20550;-73
2021/12/09 07:45:29;;;;;;;45.77;24.77;;;0.70;99.90;;;;;;4970164;28;20597;-73
2021/12/09 07:47:56;;;;;;;57.80;29.13;;;0.70;99.90;;;;;;4981708;28;20731;-72
2021/12/09 07:50:25;;;;;;;53.53;28.83;;;0.70;99.90;;;;;;4991478;28;20194;-72
2021/12/09 07:52:51;;;;;;;52.37;27.20;;;0.70;99.90;;;;;;4986231;28;20178;-72
2021/12/09 07:55:20;;;;;;;46.40;26.23;;;0.70;99.90;;;;;;4979689;28;20178;-72
2021/12/09 07:57:46;;;;;;;44.30;24.93;;;0.70;99.90;;;;;;4959504;28;20666;-72
2021/12/09 08:00:16;;;;;;;48.13;27.27;;;0.80;99.90;;;;;;4991080;28;20324;-73
2021/12/09 08:02:44;;;;;;;45.57;26.83;;;0.80;99.90;;;;;;4979970;28;20181;-74
2021/12/09 08:05:11;;;;;;;41.20;24.60;;;0.80;99.90;;;;;;4984898;28;20266;-75
2021/12/09 08:07:37;;;;;;;45.47;25.60;;;0.80;99.90;;;;;;4982830;28;20197;-74
2021/12/09 08:10:04;;;;;;;43.23;26.10;;;0.90;99.90;;;;;;4988979;28;20272;-74
2021/12/09 08:12:29;;;;;;;43.40;25.83;;;0.80;99.90;;;;;;4983630;28;20185;-74
2021/12/09 08:14:55;;;;;;;41.73;24.13;;;0.80;99.90;;;;;;4983469;28;20563;-73
2021/12/09 08:20:07;;;;;;;39.93;23.40;;;0.80;99.90;;;;;;4984948;28;20263;-73
2021/12/09 08:22:33;;;;;;;42.73;25.13;;;0.90;99.90;;;;;;4989991;28;20247;-72
2021/12/09 08:25:00;;;;;;;42.73;25.53;;;0.90;99.90;;;;;;4988554;28;20179;-73
2021/12/09 08:27:26;;;;;;;39.63;24.17;;;0.90;99.90;;;;;;4987893;28;20278;-72
2021/12/09 08:29:52;;;;;;;45.67;23.93;;;0.80;99.90;;;;;;4992407;28;20648;-74
2021/12/09 08:32:18;;;;;;;38.60;24.40;;;0.80;99.90;;;;;;4991464;28;20174;-73
2021/12/09 08:34:44;;;;;;;38.83;24.87;;;0.80;99.90;;;;;;4995635;28;20268;-74
2021/12/09 08:37:11;;;;;;;36.33;22.20;;;0.80;99.90;;;;;;4991149;28;20202;-74
2021/12/09 08:39:37;;;;;;;33.30;22.27;;;0.80;99.90;;;;;;4990764;28;20188;-74
2021/12/09 08:42:03;;;;;;;37.93;23.27;;;0.80;99.90;;;;;;4993327;28;20178;-73
2021/12/09 08:44:29;;;;;;;31.83;21.10;;;1.00;99.90;;;;;;4988326;28;20193;-73
2021/12/09 08:46:54;;;;;;;36.43;22.30;;;1.00;99.90;;;;;;4996082;28;20703;-73
2021/12/09 08:49:20;;;;;;;31.10;20.80;;;1.10;99.90;;;;;;4994525;28;20186;-73
2021/12/09 08:51:46;;;;;;;35.67;23.53;;;1.10;99.90;;;;;;4997566;28;20268;-74
2021/12/09 08:54:14;;;;;;;35.80;21.97;;;1.00;99.90;;;;;;4989844;28;20273;-74
2021/12/09 08:56:39;;;;;;;29.30;18.93;;;1.00;99.90;;;;;;4990256;28;20216;-74
2021/12/09 08:59:06;;;;;;;33.63;20.37;;;1.10;99.90;;;;;;4987675;28;20187;-74
2021/12/09 09:01:34;;;;;;;32.97;21.20;;;1.20;99.90;;;;;;4991999;28;20193;-72
2021/12/09 09:04:01;;;;;;;31.03;19.30;;;1.30;99.90;;;;;;4975089;28;20532;-73
2021/12/09 09:06:29;;;;;;;28.00;19.27;;;1.30;99.90;;;;;;4987628;28;20269;-73
2021/12/09 09:08:57;;;;;;;27.43;18.70;;;1.30;99.90;;;;;;4994057;28;20284;-73
2021/12/09 09:11:23;;;;;;;28.33;19.37;;;1.20;99.90;;;;;;4996265;28;20209;-72
2021/12/09 09:13:49;;;;;;;28.77;19.17;;;1.20;99.90;;;;;;4991620;28;20185;-72
2021/12/09 09:16:15;;;;;;;22.97;15.97;;;1.10;99.90;;;;;;4989724;28;20178;-74
2021/12/09 09:18:41;;;;;;;29.33;19.47;;;1.10;99.90;;;;;;4988709;28;20202;-74
2021/12/09 09:21:06;;;;;;;29.10;19.30;;;1.10;99.90;;;;;;4989951;28;20244;-74
2021/12/09 09:23:32;;;;;;;27.43;18.20;;;1.00;99.90;;;;;;4990960;28;20186;-74
2021/12/09 09:25:58;;;;;;;24.93;17.20;;;1.00;99.90;;;;;;4992787;28;20181;-75
2021/12/09 09:28:24;;;;;;;26.77;17.57;;;1.10;99.90;;;;;;4988069;28;20206;-75
2021/12/09 09:30:53;;;;;;;26.47;17.40;;;1.10;99.90;;;;;;4992945;28;20224;-73
2021/12/09 09:33:21;;;;;;;27.30;18.57;;;1.20;99.90;;;;;;4990127;28;20178;-73
2021/12/09 09:35:47;;;;;;;22.27;16.90;;;1.20;99.90;;;;;;4993323;28;20186;-74
2021/12/09 09:38:14;;;;;;;23.47;16.50;;;1.20;99.90;;;;;;4990934;28;20212;-73
2021/12/09 09:40:49;;;;;;;26.37;16.47;;;1.10;99.90;;;;;;4984266;28;20182;-73
2021/12/09 09:43:29;;;;;;;28.07;17.03;;;1.10;99.90;;;;;;4990865;28;20608;-73
2021/12/09 09:45:58;;;;;;;23.30;17.00;;;1.10;99.90;;;;;;4988820;28;20200;-73
2021/12/09 09:48:24;;;;;;;26.70;18.53;;;1.10;99.90;;;;;;4988925;28;20209;-73
2021/12/09 09:50:50;;;;;;;25.00;17.40;;;1.20;99.90;;;;;;4990155;28;20202;-73
2021/12/09 09:53:17;;;;;;;24.23;17.07;;;1.30;99.90;;;;;;4989601;28;20180;-73
2021/12/09 09:55:46;;;;;;;24.50;17.87;;;1.20;99.90;;;;;;4989986;28;20252;-73
2021/12/09 09:58:12;;;;;;;22.37;15.63;;;1.10;99.90;;;;;;4987286;28;20229;-76
2021/12/09 10:00:37;;;;;;;24.00;16.27;;;1.30;99.90;;;;;;4984256;28;20264;-73
2021/12/09 10:03:06;;;;;;;22.10;15.83;;;1.20;99.90;;;;;;4992770;28;20820;-73
2021/12/09 10:05:36;;;;;;;20.83;14.40;;;1.20;99.90;;;;;;4985860;28;20564;-73
2021/12/09 10:08:04;;;;;;;19.23;14.50;;;1.30;99.90;;;;;;4970528;28;20226;-73
2021/12/09 10:10:30;;;;;;;21.43;14.43;;;1.40;99.90;;;;;;4982506;28;20201;-74
2021/12/09 10:13:05;;;;;;;18.10;13.93;;;1.40;99.90;;;;;;4989099;28;20228;-73
2021/12/09 10:15:44;;;;;;;21.30;15.00;;;1.40;99.90;;;;;;4991559;28;20302;-74
2021/12/09 10:18:10;;;;;;;23.73;15.30;;;1.40;99.90;;;;;;4991437;28;20202;-73
2021/12/09 10:20:54;;;;;;;20.13;13.63;;;1.50;99.90;;;;;;4990608;28;20194;-74
2021/12/09 10:23:31;;;;;;;21.70;13.87;;;1.40;99.90;;;;;;4984769;28;20193;-74
2021/12/09 10:26:17;;;;;;;20.40;14.50;;;1.50;99.90;;;;;;4993468;28;20546;-74
2021/12/09 10:28:50;;;;;;;22.53;13.77;;;1.50;99.90;;;;;;4987394;28;20576;-74
2021/12/09 10:31:36;;;;;;;22.90;14.60;;;1.50;99.90;;;;;;4974727;28;20209;-74
2021/12/09 10:34:27;;;;;;;24.40;14.23;;;1.40;99.90;;;;;;4987235;28;20178;-73
2021/12/09 10:37:12;;;;;;;18.57;12.73;;;1.50;99.90;;;;;;4995822;28;20297;-73
2021/12/09 10:39:51;;;;;;;18.67;13.43;;;1.40;99.90;;;;;;4987448;28;20569;-73
2021/12/09 10:42:27;;;;;;;18.43;13.13;;;1.50;99.90;;;;;;4990282;28;20256;-74
2021/12/09 10:45:17;;;;;;;18.37;12.87;;;1.50;99.90;;;;;;4991057;28;20190;-74
2021/12/09 10:47:51;;;;;;;18.83;12.27;;;1.50;99.90;;;;;;4985997;28;20205;-74
2021/12/09 10:51:04;;;;;;;16.20;12.13;;;1.40;99.90;;;;;;4974857;28;20285;-74
2021/12/09 10:53:47;;;;;;;19.23;13.43;;;1.40;99.90;;;;;;4981936;28;20185;-74
2021/12/09 10:56:22;;;;;;;21.93;14.43;;;1.30;99.90;;;;;;4989902;28;20181;-74
2021/12/09 10:58:49;;;;;;;17.70;12.23;;;1.20;99.90;;;;;;4975913;28;20209;-74
2021/12/09 11:01:17;;;;;;;23.07;12.13;;;1.20;99.90;;;;;;4988670;28;20256;-73
2021/12/09 11:03:45;;;;;;;20.13;12.67;;;1.30;99.90;;;;;;4983541;28;20584;-73
2021/12/09 11:06:18;;;;;;;19.60;12.60;;;1.30;99.90;;;;;;4989958;28;20191;-73
2021/12/09 11:08:53;;;;;;;17.90;12.37;;;1.30;99.90;;;;;;4985642;28;20203;-73
2021/12/09 11:11:34;;;;;;;18.57;11.67;;;1.20;99.90;;;;;;4975288;28;20296;-73
2021/12/09 11:14:03;;;;;;;15.73;11.60;;;1.20;99.90;;;;;;4988259;28;20182;-73
2021/12/09 11:16:40;;;;;;;15.00;10.50;;;1.20;99.90;;;;;;4988251;28;20178;-73
2021/12/09 11:19:10;;;;;;;14.53;9.70;;;1.30;99.90;;;;;;4970937;28;20178;-73
2021/12/09 11:21:46;;;;;;;16.30;10.13;;;1.30;99.90;;;;;;4984344;28;20244;-74
2021/12/09 11:24:15;;;;;;;13.77;10.77;;;1.30;99.90;;;;;;4997085;28;20652;-74
2021/12/09 11:29:23;;;;;;;12.17;9.53;;;1.40;99.90;;;;;;4987347;28;20511;-74
2021/12/09 11:31:59;;;;;;;11.70;9.80;;;1.40;99.90;;;;;;4985545;28;20244;-74
2021/12/09 11:34:29;;;;;;;9.73;8.10;;;1.40;99.90;;;;;;4995331;28;20547;-73
2021/12/09 11:37:02;;;;;;;10.57;8.73;;;1.40;99.90;;;;;;4984107;28;20178;-73
2021/12/09 11:39:34;;;;;;;10.23;8.70;;;1.40;99.90;;;;;;4990857;28;20182;-73
2021/12/09 11:42:23;;;;;;;10.87;8.67;;;1.40;99.90;;;;;;4988732;28;20275;-73
2021/12/09 11:44:49;;;;;;;11.07;9.47;;;1.40;99.90;;;;;;4992101;28;20737;-73
2021/12/09 11:47:16;;;;;;;12.80;9.23;;;1.40;99.90;;;;;;4988130;28;20197;-73
2021/12/09 11:49:45;;;;;;;14.20;9.33;;;1.30;99.90;;;;;;4987996;28;20174;-73
2021/12/09 11:52:15;;;;;;;10.87;8.60;;;1.30;99.90;;;;;;4985280;28;20202;-73
2021/12/09 11:54:49;;;;;;;12.43;8.47;;;1.30;99.90;;;;;;4982760;28;20182;-73
2021/12/09 11:57:43;;;;;;;11.60;8.87;;;1.30;99.90;;;;;;4989336;28;20225;-73
2021/12/09 12:16:01;;;;;;;7.97;7.17;;;1.60;99.90;;;;;;4993720;28;20542;-74
2021/12/09 12:21:38;;;;;;;9.47;7.80;;;1.70;99.90;;;;;;4984663;28;20212;-74
2021/12/09 12:27:12;;;;;;;12.40;8.80;;;1.70;99.90;;;;;;4981500;28;20206;-74
2021/12/09 12:33:47;;;;;;;10.43;7.53;;;2.00;99.90;;;;;;4983413;28;20192;-74
2021/12/09 12:36:24;;;;;;;10.37;7.17;;;2.20;99.90;;;;;;4980556;28;20277;-74
2021/12/09 12:38:49;;;;;;;9.50;7.07;;;2.30;99.90;;;;;;4989013;28;20672;-75
2021/12/09 12:41:17;;;;;;;7.67;6.60;;;2.40;99.90;;;;;;4986820;28;20208;-75
2021/12/09 12:43:54;;;;;;;8.27;6.43;;;2.50;99.90;;;;;;4983684;28;20288;-75
2021/12/09 12:46:49;;;;;;;8.90;7.13;;;2.50;99.90;;;;;;4994162;28;20246;-75
2021/12/09 12:52:13;;;;;;;9.43;8.03;;;2.70;99.90;;;;;;4978633;28;20214;-75
2021/12/09 12:57:16;;;;;;;8.17;7.37;;;2.80;99.90;;;;;;4984716;28;20199;-74
2021/12/09 12:59:59;;;;;;;7.90;7.10;;;2.90;99.90;;;;;;4982087;28;20176;-75
2021/12/09 13:05:24;;;;;;;8.10;6.80;;;2.90;99.90;;;;;;4990243;28;20335;-74
2021/12/09 13:13:29;;;;;;;8.00;7.07;;;2.90;99.90;;;;;;4987954;28;20190;-74
2021/12/09 13:21:55;;;;;;;9.70;6.47;;;3.10;99.90;;;;;;4989816;28;20253;-74
2021/12/09 13:33:31;;;;;;;8.60;7.10;;;3.20;99.90;;;;;;4994824;28;20213;-74
2021/12/09 13:38:32;;;;;;;8.17;7.10;;;3.10;99.90;;;;;;4989466;28;20252;-74
2021/12/09 13:46:54;;;;;;;7.33;6.63;;;2.90;99.90;;;;;;4990093;28;20261;-74
2021/12/09 13:55:09;;;;;;;9.43;7.30;;;3.10;99.90;;;;;;4990999;28;20645;-74
2021/12/09 13:57:45;;;;;;;8.00;7.20;;;3.10;99.90;;;;;;4992128;28;20202;-74
2021/12/09 14:00:25;;;;;;;9.47;7.00;;;2.90;99.90;;;;;;4987720;28;20181;-74
2021/12/09 14:03:22;;;;;;;9.67;7.37;;;2.90;99.90;;;;;;4964292;28;20450;-74